createdAt,value
2022-10-03T00:01:00.397Z,99070.34
2022-10-03T00:04:07.235Z,99069.72
2022-10-03T00:07:01.714Z,99066.28
2022-10-03T00:09:53.268Z,99075.06
2022-10-03T00:12:52.871Z,99083.69
2022-10-03T00:15:26.967Z,99072.78
2022-10-03T00:18:02.212Z,99073.44
2022-10-03T00:20:45.222Z,99060.25
2022-10-03T00:23:21.646Z,99081.84
2022-10-03T00:26:28.553Z,99088.00
2022-10-03T00:29:02.526Z,99079.78
2022-10-03T00:31:48.443Z,99082.66
2022-10-03T00:34:37.621Z,99082.66
2022-10-03T00:37:27.266Z,99081.84
2022-10-03T00:40:22.813Z,99089.22
2022-10-03T00:43:13.455Z,99097.00
2022-10-03T00:45:54.361Z,99100.06
2022-10-03T00:48:58.533Z,99104.56
2022-10-03T00:51:45.131Z,99031.66
2022-10-03T00:54:45.066Z,99107.44
2022-10-03T00:57:24.077Z,99100.25
2022-10-03T00:59:57.778Z,99109.47
2022-10-03T01:02:46.400Z,99115.22
2022-10-03T01:05:28.419Z,99120.78
2022-10-03T01:08:17.987Z,99118.09
2022-10-03T01:10:55.197Z,99130.22
2022-10-03T01:14:03.603Z,99125.47
2022-10-03T01:16:37.711Z,99125.47
2022-10-03T01:19:46.754Z,99124.84
2022-10-03T01:22:43.366Z,99120.78
2022-10-03T01:25:25.243Z,99126.91
2022-10-03T01:28:35.777Z,99132.22
2022-10-03T01:31:06.009Z,99129.72
2022-10-03T01:33:46.247Z,99131.78
2022-10-03T01:36:20.416Z,99131.38
2022-10-03T01:39:11.630Z,99126.88
2022-10-03T01:41:51.854Z,99131.97
2022-10-03T01:44:24.881Z,99135.88
2022-10-03T01:46:58.724Z,99137.09
2022-10-03T01:49:36.494Z,99133.00
2022-10-03T01:52:31.091Z,99127.50
2022-10-03T01:55:53.460Z,99139.38
2022-10-03T01:58:31.436Z,99110.59
2022-10-03T02:01:25.793Z,99127.22
2022-10-03T02:04:02.516Z,99118.59
2022-10-03T02:06:43.646Z,99133.16
2022-10-03T02:09:55.344Z,99125.59
2022-10-03T02:12:22.912Z,99035.53
2022-10-03T02:15:01.124Z,99116.78
2022-10-03T02:18:06.981Z,99123.09
2022-10-03T02:20:43.170Z,99123.53
2022-10-03T02:23:38.705Z,99130.47
2022-10-03T02:26:42.066Z,99126.16
2022-10-03T02:29:46.393Z,99129.41
2022-10-03T02:32:33.620Z,99125.28
2022-10-03T02:35:31.453Z,99118.34
2022-10-03T02:38:35.594Z,99118.13
2022-10-03T02:41:23.602Z,99114.47
2022-10-03T02:43:52.641Z,99112.81
2022-10-03T02:46:43.715Z,99115.84
2022-10-03T02:49:28.728Z,99109.06
2022-10-03T02:52:14.180Z,99114.19
2022-10-03T02:54:49.585Z,99112.09
2022-10-03T02:57:24.069Z,99108.19
2022-10-03T03:00:09.820Z,99104.47
2022-10-03T03:02:39.100Z,99099.16
2022-10-03T03:05:36.624Z,99104.47
2022-10-03T03:08:15.862Z,99107.75
2022-10-03T03:11:01.186Z,99114.38
2022-10-03T03:14:07.043Z,99116.66
2022-10-03T03:16:42.333Z,99131.81
2022-10-03T03:19:46.382Z,99128.56
2022-10-03T03:22:33.711Z,99134.91
2022-10-03T03:25:06.582Z,99142.16
2022-10-03T03:28:02.674Z,99145.19
2022-10-03T03:30:47.025Z,99141.25
2022-10-03T03:33:36.483Z,99144.28
2022-10-03T03:36:24.186Z,99151.81
2022-10-03T03:39:09.454Z,99145.84
2022-10-03T03:41:50.933Z,99142.75
2022-10-03T03:44:55.773Z,99151.19
2022-10-03T03:48:04.830Z,99150.34
2022-10-03T03:50:37.531Z,99140.38
2022-10-03T03:53:36.351Z,99150.00
2022-10-03T03:56:19.291Z,99145.88
2022-10-03T03:59:08.824Z,99146.47
2022-10-03T04:02:06.533Z,99152.97
2022-10-03T04:04:52.002Z,99161.13
2022-10-03T04:07:24.737Z,99162.34
2022-10-03T04:10:16.762Z,99164.00
2022-10-03T04:13:24.322Z,99147.16
2022-10-03T04:16:15.840Z,99161.59
2022-10-03T04:19:00.750Z,99159.59
2022-10-03T04:21:43.999Z,99147.81
2022-10-03T04:24:19.715Z,99163.66
2022-10-03T04:27:04.539Z,99160.84
2022-10-03T04:30:01.416Z,99156.69
2022-10-03T04:32:53.081Z,99154.28
2022-10-03T04:35:28.465Z,99162.25
2022-10-03T04:38:23.017Z,99160.09
2022-10-03T04:41:27.607Z,99153.53
2022-10-03T04:44:17.484Z,99156.34
2022-10-03T04:47:03.546Z,99149.84
2022-10-03T04:49:40.145Z,99151.16
2022-10-03T04:52:20.172Z,99157.59
2022-10-03T04:55:24.001Z,99164.63
2022-10-03T04:58:04.926Z,99169.72
2022-10-03T05:00:57.336Z,99169.72
2022-10-03T05:03:54.272Z,99169.25
2022-10-03T05:06:47.885Z,99173.78
2022-10-03T05:09:32.867Z,99182.38
2022-10-03T05:12:06.206Z,99176.25
2022-10-03T05:14:49.876Z,99175.41
2022-10-03T05:17:25.596Z,99184.03
2022-10-03T05:20:10.877Z,99180.94
2022-10-03T05:23:11.247Z,99187.63
2022-10-03T05:25:53.421Z,99186.31
2022-10-03T05:28:34.478Z,99182.97
2022-10-03T05:31:22.823Z,99188.75
2022-10-03T05:34:00.053Z,99196.94
2022-10-03T05:37:06.438Z,99202.63
2022-10-03T05:40:14.278Z,99206.75
2022-10-03T05:42:57.982Z,99216.56
2022-10-03T05:45:59.008Z,99221.03
2022-10-03T05:48:34.055Z,99223.69
2022-10-03T05:51:34.035Z,99232.13
2022-10-03T05:54:36.008Z,99231.00
2022-10-03T05:57:07.846Z,99236.94
2022-10-03T05:59:47.014Z,99240.00
2022-10-03T06:02:34.895Z,99252.19
2022-10-03T06:05:39.209Z,99251.19
2022-10-03T06:08:19.892Z,99251.34
2022-10-03T06:10:51.925Z,99250.78
2022-10-03T06:13:21.008Z,99261.69
2022-10-03T06:15:56.374Z,99254.09
2022-10-03T06:18:55.322Z,99265.00
2022-10-03T06:21:25.719Z,99263.91
2022-10-03T06:24:17.148Z,99263.97
2022-10-03T06:27:26.234Z,99261.06
2022-10-03T06:30:11.695Z,99263.97
2022-10-03T06:33:27.462Z,99263.06
2022-10-03T06:36:02.800Z,99267.41
2022-10-03T06:39:08.325Z,99265.09
2022-10-03T06:41:59.039Z,99268.41
2022-10-03T06:45:05.102Z,99268.03
2022-10-03T06:47:56.623Z,99266.47
2022-10-03T06:50:39.429Z,99268.34
2022-10-03T06:53:34.507Z,99265.38
2022-10-03T06:56:31.768Z,99262.66
2022-10-03T06:59:22.819Z,99257.78
2022-10-03T07:02:11.039Z,99257.03
2022-10-03T07:05:02.609Z,99257.59
2022-10-03T07:07:50.635Z,99259.81
2022-10-03T07:10:35.080Z,99259.81
2022-10-03T07:13:20.212Z,99263.47
2022-10-03T07:16:26.082Z,99266.41
2022-10-03T07:19:04.331Z,99272.34
2022-10-03T07:22:29.015Z,99270.16
2022-10-03T07:25:33.005Z,99270.84
2022-10-03T07:28:29.743Z,99277.63
2022-10-03T07:31:08.415Z,99282.13
2022-10-03T07:33:50.180Z,99282.72
2022-10-03T07:36:47.274Z,99283.34
2022-10-03T07:39:27.630Z,99284.97
2022-10-03T07:42:31.518Z,99287.50
2022-10-03T07:45:24.641Z,99285.69
2022-10-03T07:47:54.040Z,99289.25
2022-10-03T07:50:20.654Z,99292.00
2022-10-03T07:53:01.159Z,99295.69
2022-10-03T07:55:39.902Z,99293.94
2022-10-03T07:58:28.721Z,99299.09
2022-10-03T08:01:20.624Z,99301.00
2022-10-03T08:04:01.708Z,99274.25
2022-10-03T08:06:43.335Z,99291.97
2022-10-03T08:09:43.766Z,99296.19
2022-10-03T08:12:34.806Z,99300.69
2022-10-03T08:15:25.901Z,99297.03
2022-10-03T08:18:26.720Z,99303.66
2022-10-03T08:20:57.801Z,99302.13
2022-10-03T08:23:33.425Z,99306.75
2022-10-03T08:26:00.111Z,99304.34
2022-10-03T08:28:47.045Z,99303.38
2022-10-03T08:31:28.703Z,99302.38
2022-10-03T08:34:13.963Z,99300.41
2022-10-03T08:36:46.214Z,99305.34
2022-10-03T08:39:13.997Z,99299.84
2022-10-03T08:41:46.497Z,99303.31
2022-10-03T08:44:41.079Z,99306.19
2022-10-03T08:47:19.867Z,99301.28
2022-10-03T08:50:16.296Z,99309.94
2022-10-03T08:53:48.871Z,99309.19
2022-10-03T08:56:22.649Z,99299.31
2022-10-03T08:59:07.147Z,99304.22
2022-10-03T09:02:11.060Z,99306.09
2022-10-03T09:05:05.070Z,99300.91
2022-10-03T09:07:44.422Z,99293.88
2022-10-03T09:10:41.871Z,99293.03
2022-10-03T09:13:28.261Z,99293.44
2022-10-03T09:16:04.436Z,99293.22
2022-10-03T09:18:56.392Z,99294.84
2022-10-03T09:21:44.743Z,99295.88
2022-10-03T09:24:35.795Z,99299.88
2022-10-03T09:27:15.996Z,99300.16
2022-10-03T09:29:58.107Z,99302.88
2022-10-03T09:32:36.472Z,99296.47
2022-10-03T09:36:00.535Z,99297.47
2022-10-03T09:39:04.031Z,99302.75
2022-10-03T09:42:06.940Z,99298.66
2022-10-03T09:45:10.216Z,99292.34
2022-10-03T09:47:53.097Z,99298.47
2022-10-03T09:50:56.657Z,99294.19
2022-10-03T09:53:56.180Z,99293.09
2022-10-03T09:56:25.573Z,99288.69
2022-10-03T09:59:29.628Z,99281.00
2022-10-03T10:02:33.957Z,99285.09
2022-10-03T10:05:22.777Z,99278.50
2022-10-03T10:08:10.770Z,99279.47
2022-10-03T10:11:12.134Z,99273.50
2022-10-03T10:14:06.191Z,99273.66
2022-10-03T10:17:08.551Z,99275.88
2022-10-03T10:19:54.873Z,99271.75
2022-10-03T10:22:39.333Z,99269.97
2022-10-03T10:25:14.907Z,99268.72
2022-10-03T10:28:18.080Z,99219.88
2022-10-03T10:31:26.036Z,99270.53
2022-10-03T10:34:17.243Z,99272.72
2022-10-03T10:37:08.629Z,99268.75
2022-10-03T10:39:53.865Z,99277.91
2022-10-03T10:42:36.203Z,99280.72
2022-10-03T10:45:40.187Z,99279.59
2022-10-03T10:48:28.432Z,99285.13
2022-10-03T10:51:28.642Z,99275.53
2022-10-03T10:54:31.318Z,99278.88
2022-10-03T10:57:07.811Z,99273.28
2022-10-03T10:59:59.018Z,99269.56
2022-10-03T11:02:43.664Z,99272.09
2022-10-03T11:05:34.384Z,99271.22
2022-10-03T11:08:19.480Z,99269.22
2022-10-03T11:10:54.838Z,99260.91
2022-10-03T11:13:59.389Z,99263.00
2022-10-03T11:16:57.884Z,99252.34
2022-10-03T11:19:33.538Z,99255.03
2022-10-03T11:22:24.551Z,99257.56
2022-10-03T11:25:43.706Z,99256.72
2022-10-03T11:28:46.030Z,99252.41
2022-10-03T11:31:36.237Z,99251.50
2022-10-03T11:34:40.695Z,99276.69
2022-10-03T11:37:21.005Z,99250.44
2022-10-03T11:39:50.593Z,99258.75
2022-10-03T11:42:21.740Z,99256.66
2022-10-03T11:45:05.831Z,99256.69
2022-10-03T11:47:51.800Z,99225.19
2022-10-03T11:50:18.922Z,99245.59
2022-10-03T11:53:11.134Z,99219.66
2022-10-03T11:56:18.679Z,99243.56
2022-10-03T11:59:13.142Z,99238.63
2022-10-03T12:05:52.902Z,99241.13
2022-10-03T12:08:46.783Z,99236.84
2022-10-03T12:11:25.938Z,99230.72
2022-10-03T12:13:55.219Z,99231.66
2022-10-03T12:16:30.421Z,99235.72
2022-10-03T12:19:18.414Z,99239.28
2022-10-03T12:22:06.402Z,99225.19
2022-10-03T12:24:37.583Z,99226.78
2022-10-03T12:27:09.733Z,99217.97
2022-10-03T12:29:40.426Z,99218.44
2022-10-03T12:32:17.086Z,99216.22
2022-10-03T12:34:58.578Z,99212.69
2022-10-03T12:37:34.792Z,99215.38
2022-10-03T12:40:15.779Z,99214.09
2022-10-03T12:42:54.948Z,99214.81
2022-10-03T12:45:27.504Z,99210.47
2022-10-03T12:48:04.643Z,99175.16
2022-10-03T12:51:10.471Z,99200.06
2022-10-03T12:54:26.491Z,99207.34
2022-10-03T12:57:13.035Z,99198.94
2022-10-03T12:59:52.935Z,99195.66
2022-10-03T13:02:39.703Z,99187.91
2022-10-03T13:05:27.551Z,99190.97
2022-10-03T13:07:57.659Z,99157.56
2022-10-03T13:10:35.048Z,99186.88
2022-10-03T13:13:20.125Z,99184.53
2022-10-03T13:16:04.142Z,99178.72
2022-10-03T13:18:52.676Z,99171.88
2022-10-03T13:21:45.989Z,99177.31
2022-10-03T13:24:20.422Z,99172.38
2022-10-03T13:27:15.844Z,99178.94
2022-10-03T13:29:48.734Z,99176.59
2022-10-03T13:32:30.451Z,99177.63
2022-10-03T13:35:24.040Z,99180.22
2022-10-03T13:38:12.774Z,99179.63
2022-10-03T13:40:48.286Z,99167.47
2022-10-03T13:43:20.101Z,99176.53
2022-10-03T13:45:49.491Z,99177.81
2022-10-03T13:48:22.956Z,99159.34
2022-10-03T13:51:01.720Z,99172.88
2022-10-03T13:53:59.860Z,99172.75
2022-10-03T13:56:40.825Z,99167.94
2022-10-03T13:59:32.236Z,99170.88
2022-10-03T14:02:17.329Z,99163.53
2022-10-03T14:05:05.441Z,99165.22
2022-10-03T14:08:07.340Z,99168.94
2022-10-03T14:11:00.941Z,99176.25
2022-10-03T14:13:31.956Z,99166.66
2022-10-03T14:16:25.161Z,99159.25
2022-10-03T14:19:05.092Z,99162.69
2022-10-03T14:22:14.894Z,99155.56
2022-10-03T14:25:03.375Z,99142.25
2022-10-03T14:27:59.753Z,99163.31
2022-10-03T14:31:07.609Z,99157.59
2022-10-03T14:33:42.013Z,99161.69
2022-10-03T14:36:39.031Z,99159.75
2022-10-03T14:39:28.379Z,99156.34
2022-10-03T14:41:54.773Z,99161.69
2022-10-03T14:44:36.579Z,99160.25
2022-10-03T14:47:14.265Z,99151.22
2022-10-03T14:49:56.289Z,99163.47
2022-10-03T14:52:38.088Z,99164.38
2022-10-03T14:55:14.421Z,99165.75
2022-10-03T14:58:08.727Z,99153.78
2022-10-03T15:00:43.731Z,99159.19
2022-10-03T15:03:16.711Z,99155.31
2022-10-03T15:06:03.187Z,99138.31
2022-10-03T15:08:37.745Z,99151.06
2022-10-03T15:11:06.451Z,99149.25
2022-10-03T15:13:51.123Z,99149.16
2022-10-03T15:16:20.894Z,99143.91
2022-10-03T15:19:17.943Z,99147.19
2022-10-03T15:21:47.343Z,99141.41
2022-10-03T15:24:25.112Z,99140.69
2022-10-03T15:26:58.507Z,99136.84
2022-10-03T15:29:25.696Z,99128.03
2022-10-03T15:31:54.490Z,99138.25
2022-10-03T15:34:27.667Z,99132.91
2022-10-03T15:37:04.173Z,99138.25
2022-10-03T15:39:35.612Z,99131.16
2022-10-03T15:42:04.446Z,99140.41
2022-10-03T15:44:39.352Z,99141.94
2022-10-03T15:47:16.842Z,99129.22
2022-10-03T15:49:59.733Z,99140.34
2022-10-03T15:52:43.223Z,99149.81
2022-10-03T15:55:34.657Z,99152.03
2022-10-03T15:58:22.675Z,99143.63
2022-10-03T16:01:00.964Z,99139.88
2022-10-03T16:03:39.293Z,99144.72
2022-10-03T16:06:13.839Z,99142.13
2022-10-03T16:08:58.990Z,99141.88
2022-10-03T16:11:29.466Z,99136.16
2022-10-03T16:14:16.917Z,99129.50
2022-10-03T16:16:54.003Z,99119.84
2022-10-03T16:19:38.158Z,99123.38
2022-10-03T16:22:04.510Z,99125.47
2022-10-03T16:24:36.073Z,99104.00
2022-10-03T16:27:14.198Z,99126.28
2022-10-03T16:29:49.899Z,99123.88
2022-10-03T16:32:27.066Z,99113.41
2022-10-03T16:34:59.429Z,99113.47
2022-10-03T16:37:27.941Z,99125.03
2022-10-03T16:40:05.024Z,99103.69
2022-10-03T16:42:46.289Z,99113.91
2022-10-03T16:45:30.819Z,99093.56
2022-10-03T16:48:20.514Z,99113.56
2022-10-03T16:50:53.272Z,99121.81
2022-10-03T16:53:22.192Z,99105.34
2022-10-03T16:55:55.385Z,99108.63
2022-10-03T16:58:33.649Z,99113.97
2022-10-03T17:01:25.849Z,99110.72
2022-10-03T17:04:01.083Z,99117.72
2022-10-03T17:06:31.125Z,99118.13
2022-10-03T17:09:02.504Z,99116.47
2022-10-03T17:11:34.139Z,99109.03
2022-10-03T17:14:06.212Z,99105.41
2022-10-03T17:16:47.447Z,99084.25
2022-10-03T17:19:21.285Z,99096.81
2022-10-03T17:21:54.587Z,99101.00
2022-10-03T17:24:42.259Z,99108.59
2022-10-03T17:27:16.916Z,99094.50
2022-10-03T17:29:51.003Z,99099.44
2022-10-03T17:32:42.080Z,99100.69
2022-10-03T17:35:25.015Z,99093.91
2022-10-03T17:38:30.371Z,99090.41
2022-10-03T17:41:12.286Z,99093.06
2022-10-03T17:43:47.743Z,99112.03
2022-10-03T17:46:26.044Z,99122.78
2022-10-03T17:49:18.665Z,99046.81
2022-10-03T17:51:48.113Z,99124.63
2022-10-03T17:54:26.271Z,99074.75
2022-10-03T17:57:00.103Z,99115.59
2022-10-03T17:59:46.711Z,99118.06
2022-10-03T18:02:24.076Z,99118.03
2022-10-03T18:05:03.045Z,99109.38
2022-10-03T18:07:30.880Z,99110.03
2022-10-03T18:09:58.058Z,99128.97
2022-10-03T18:12:40.279Z,99127.94
2022-10-03T18:15:22.646Z,99126.28
2022-10-03T18:18:17.099Z,99120.53
2022-10-03T18:20:48.862Z,99117.66
2022-10-03T18:23:54.815Z,99105.31
2022-10-03T18:26:35.951Z,99086.41
2022-10-03T18:29:21.957Z,99094.00
2022-10-03T18:32:17.259Z,99098.53
2022-10-03T18:34:52.472Z,99113.28
2022-10-03T18:37:28.240Z,99104.00
2022-10-03T18:39:58.444Z,99104.41
2022-10-03T18:42:29.669Z,99079.34
2022-10-03T18:44:58.301Z,98983.44
2022-10-03T18:47:33.220Z,99093.72
2022-10-03T18:50:26.187Z,99071.97
2022-10-03T18:53:05.299Z,99097.41
2022-10-03T18:55:47.293Z,99098.59
2022-10-03T18:58:25.808Z,99072.34
2022-10-03T19:00:58.304Z,99096.97
2022-10-03T19:03:35.421Z,99097.78
2022-10-03T19:06:21.216Z,99077.63
2022-10-03T19:08:58.721Z,99090.75
2022-10-03T19:11:39.301Z,99085.41
2022-10-03T19:14:17.479Z,99067.28
2022-10-03T19:17:20.875Z,99083.28
2022-10-03T19:19:58.879Z,99083.28
2022-10-03T19:22:33.049Z,99077.75
2022-10-03T19:25:05.141Z,99089.50
2022-10-03T19:27:56.045Z,99088.06
2022-10-03T19:30:25.389Z,99096.38
2022-10-03T19:32:58.890Z,99090.03
2022-10-03T19:35:26.974Z,99083.69
2022-10-03T19:38:00.444Z,99086.84
2022-10-03T19:40:52.960Z,99089.47
2022-10-03T19:43:35.028Z,99073.97
2022-10-03T19:46:35.656Z,99071.50
2022-10-03T19:49:27.610Z,99080.31
2022-10-03T19:52:21.743Z,99065.75
2022-10-03T19:54:50.648Z,99063.13
2022-10-03T19:57:26.547Z,99072.09
2022-10-03T19:59:57.970Z,99067.59
2022-10-03T20:02:27.041Z,99064.69
2022-10-03T20:04:56.385Z,99071.44
2022-10-03T20:07:35.011Z,99068.38
2022-10-03T20:10:29.195Z,99046.22
2022-10-03T20:13:03.277Z,99078.44
2022-10-03T20:15:41.766Z,99071.66
2022-10-03T20:18:13.125Z,99073.63
2022-10-03T20:20:40.982Z,99074.97
2022-10-03T20:23:14.402Z,99078.47
2022-10-03T20:25:47.296Z,99078.97
2022-10-03T20:28:32.093Z,99088.16
2022-10-03T20:30:58.689Z,99073.59
2022-10-03T20:33:29.953Z,99071.56
2022-10-03T20:36:13.970Z,99062.00
2022-10-03T20:39:06.206Z,99061.44
2022-10-03T20:41:50.222Z,99058.34
2022-10-03T20:44:50.706Z,99057.00
2022-10-03T20:47:35.206Z,99057.00
2022-10-03T20:50:08.620Z,99035.81
2022-10-03T20:52:35.097Z,99044.75
2022-10-03T20:55:06.701Z,99031.63
2022-10-03T20:57:44.893Z,99041.91
2022-10-03T21:00:14.557Z,99036.00
2022-10-03T21:02:57.132Z,99042.47
2022-10-03T21:05:26.007Z,99046.69
2022-10-03T21:07:59.059Z,99029.03
2022-10-03T21:10:38.641Z,99061.06
2022-10-03T21:13:09.713Z,99064.88
2022-10-03T21:15:46.955Z,99061.44
2022-10-03T21:18:30.275Z,99058.66
2022-10-03T21:21:43.392Z,99050.69
2022-10-03T21:24:38.762Z,99054.75
2022-10-03T21:27:07.867Z,99047.53
2022-10-03T21:29:37.234Z,99049.94
2022-10-03T21:32:36.424Z,99047.06
2022-10-03T21:35:15.385Z,99012.78
2022-10-03T21:37:59.969Z,99041.69
2022-10-03T21:40:42.198Z,99042.94
2022-10-03T21:43:27.536Z,99048.34
2022-10-03T21:45:56.969Z,99039.53
2022-10-03T21:48:29.528Z,99047.00
2022-10-03T21:51:05.350Z,99045.81
2022-10-03T21:53:45.801Z,99041.22
2022-10-03T21:56:40.238Z,99042.59
2022-10-03T21:59:12.748Z,99044.31
2022-10-03T22:01:56.129Z,99039.00
2022-10-03T22:04:44.254Z,99045.34
2022-10-03T22:07:16.188Z,99052.41
2022-10-03T22:09:53.628Z,99037.16
2022-10-03T22:12:20.031Z,99039.25
2022-10-03T22:15:06.490Z,99033.03
2022-10-03T22:17:43.249Z,99027.63
2022-10-03T22:20:24.391Z,99021.03
2022-10-03T22:23:22.386Z,99028.72
2022-10-03T22:26:18.540Z,99009.56
2022-10-03T22:28:58.867Z,99002.44
2022-10-03T22:31:29.833Z,98999.22
2022-10-03T22:34:21.089Z,98996.50
2022-10-03T22:36:48.850Z,99006.34
2022-10-03T22:39:18.753Z,99008.56
2022-10-03T22:41:49.771Z,99000.91
2022-10-03T22:44:19.278Z,99000.53
2022-10-03T22:46:50.006Z,98999.28
2022-10-03T22:49:21.873Z,99000.38
2022-10-03T22:51:51.282Z,98974.09
2022-10-03T22:54:18.870Z,98995.75
2022-10-03T22:56:52.761Z,98986.81
2022-10-03T22:59:27.022Z,98983.00
2022-10-03T23:01:56.870Z,98981.88
2022-10-03T23:04:30.420Z,98977.94
2022-10-03T23:07:18.740Z,98971.25
2022-10-03T23:10:07.370Z,98919.78
2022-10-03T23:12:44.316Z,98974.00
2022-10-03T23:15:16.530Z,98817.84
2022-10-03T23:18:27.861Z,98962.50
2022-10-03T23:21:11.322Z,98926.94
2022-10-03T23:24:03.910Z,98947.19
2022-10-03T23:26:54.640Z,98944.19
2022-10-03T23:29:22.054Z,98948.28
2022-10-03T23:31:53.417Z,98945.84
2022-10-03T23:34:35.467Z,98945.44
2022-10-03T23:37:22.701Z,98940.97
2022-10-03T23:39:55.330Z,98931.63
2022-10-03T23:42:37.564Z,98936.47
2022-10-03T23:45:06.776Z,98939.34
2022-10-03T23:47:40.026Z,98903.16
2022-10-03T23:50:08.674Z,98936.84
2022-10-03T23:52:47.599Z,98937.06
2022-10-03T23:55:20.559Z,98928.34
2022-10-03T23:57:47.799Z,98926.91
